Time;durP1;ratioP1;P1;durP2;ratioP2;P2;SDS_P1;SDS_P2;PMS_P1;PMS_P2;Temp;Humidity;BMP_temperature;BMP_pressure;BME280_temperature;BME280_humidity;BME280_pressure;Samples;Min_cycle;Max_cycle;Signal;HPM_P1;HPM_P2
2023/07/23 00:01:58;;;;;;;;;;;14.90;99.90;;;;;;4993756;28;20345;-42
2023/07/23 00:04:25;;;;;;;;;;;14.90;99.90;;;;;;4992556;28;19937;-42
2023/07/23 00:06:51;;;;;;;;;;;14.90;99.90;;;;;;4993463;28;20285;-42
2023/07/23 00:09:18;;;;;;;;;;;14.90;99.90;;;;;;4994262;28;19921;-43
2023/07/23 00:11:45;;;;;;;;;;;14.80;99.90;;;;;;4995584;28;19922;-43
2023/07/23 00:14:11;;;;;;;;;;;14.80;99.90;;;;;;4993313;28;19928;-42
2023/07/23 00:16:39;;;;;;;;;;;14.80;99.90;;;;;;4994101;28;19925;-42
2023/07/23 00:19:06;;;;;;;;;;;14.80;99.90;;;;;;4994002;28;19926;-42
2023/07/23 00:21:33;;;;;;;;;;;14.80;99.90;;;;;;4994006;28;20286;-41
2023/07/23 00:23:59;;;;;;;;;;;14.80;99.90;;;;;;4982651;28;20031;-42
2023/07/23 00:26:27;;;;;;;;;;;14.80;99.90;;;;;;4989780;28;19926;-42
2023/07/23 00:28:54;;;;;;;;;;;14.70;99.90;;;;;;4976026;28;19943;-42
2023/07/23 00:31:21;;;;;;;;;;;14.70;99.90;;;;;;4993117;28;19929;-42
2023/07/23 00:33:49;;;;;;;;;;;14.70;99.90;;;;;;4993245;28;19922;-43
2023/07/23 00:36:15;;;;;;;;;;;14.70;99.90;;;;;;4995057;28;20295;-43
2023/07/23 00:38:42;;;;;;;;;;;14.70;99.90;;;;;;4992959;28;19977;-43
2023/07/23 00:41:09;;;;;;;;;;;14.70;99.90;;;;;;4993000;28;19925;-43
2023/07/23 00:43:35;;;;;;;;;;;14.70;99.90;;;;;;4975938;28;20362;-42
2023/07/23 00:46:02;;;;;;;;;;;14.70;99.90;;;;;;4975705;28;19921;-42
2023/07/23 00:48:29;;;;;;;;;;;14.70;99.90;;;;;;4994903;28;20345;-42
2023/07/23 00:50:57;;;;;;;;;;;14.70;99.90;;;;;;4993060;28;19922;-43
2023/07/23 00:53:25;;;;;;;;;;;14.70;99.90;;;;;;4991690;28;19926;-42
2023/07/23 00:55:52;;;;;;;;;;;14.70;99.90;;;;;;4975793;28;19929;-41
2023/07/23 00:58:19;;;;;;;;;;;14.70;99.90;;;;;;4992968;28;19921;-42
2023/07/23 01:00:45;;;;;;;;;;;14.70;99.90;;;;;;4977522;28;19926;-42
2023/07/23 01:03:12;;;;;;;;;;;14.70;99.90;;;;;;4992971;28;19922;-41
2023/07/23 01:05:39;;;;;;;;;;;14.70;99.90;;;;;;4992940;28;19925;-41
2023/07/23 01:08:07;;;;;;;;;;;14.70;99.90;;;;;;4993343;28;19925;-41
2023/07/23 01:10:34;;;;;;;;;;;14.70;99.90;;;;;;4964295;28;19922;-42
2023/07/23 01:13:00;;;;;;;;;;;14.70;99.90;;;;;;4994372;28;20314;-42
2023/07/23 01:15:27;;;;;;;;;;;14.70;99.90;;;;;;4970520;28;19922;-41
2023/07/23 01:17:54;;;;;;;;;;;14.70;99.90;;;;;;4974926;28;19969;-42
2023/07/23 01:20:21;;;;;;;;;;;14.70;99.90;;;;;;4992739;28;20332;-42
2023/07/23 01:22:49;;;;;;;;;;;14.80;99.90;;;;;;4994418;28;19969;-42
2023/07/23 01:25:16;;;;;;;;;;;14.70;99.90;;;;;;4963454;28;19926;-42
2023/07/23 01:27:42;;;;;;;;;;;14.70;99.90;;;;;;4976359;28;20433;-42
2023/07/23 01:30:10;;;;;;;;;;;14.70;99.90;;;;;;4990819;28;19925;-41
2023/07/23 01:32:36;;;;;;;;;;;14.70;99.90;;;;;;4974059;28;20013;-41
2023/07/23 01:35:04;;;;;;;;;;;14.70;99.90;;;;;;4992248;28;19922;-42
2023/07/23 01:37:31;;;;;;;;;;;14.70;99.90;;;;;;4975077;28;19947;-41
2023/07/23 01:39:59;;;;;;;;;;;14.70;99.90;;;;;;4986052;28;19922;-42
2023/07/23 01:42:26;;;;;;;;;;;14.70;99.90;;;;;;4974907;28;19922;-41
2023/07/23 01:44:52;;;;;;;;;;;14.70;99.90;;;;;;4992215;28;20274;-42
2023/07/23 01:47:19;;;;;;;;;;;14.70;99.90;;;;;;4992144;28;20223;-42
2023/07/23 01:49:46;;;;;;;;;;;14.70;99.90;;;;;;4992042;28;20353;-42
2023/07/23 01:52:12;;;;;;;;;;;14.70;99.90;;;;;;4993872;28;19967;-42
2023/07/23 01:54:39;;;;;;;;;;;14.70;99.90;;;;;;4991713;28;19922;-42
2023/07/23 01:57:07;;;;;;;;;;;14.70;99.90;;;;;;4992314;28;19921;-42
2023/07/23 01:59:34;;;;;;;;;;;14.70;99.90;;;;;;4991219;28;19972;-43
2023/07/23 02:02:04;;;;;;;;;;;14.70;99.90;;;;;;4991910;28;19930;-42
2023/07/23 02:04:31;;;;;;;;;;;14.70;99.90;;;;;;4992711;28;20330;-42
2023/07/23 02:06:57;;;;;;;;;;;14.70;99.90;;;;;;4974626;28;19928;-42
2023/07/23 02:09:24;;;;;;;;;;;14.70;99.90;;;;;;4991089;28;19921;-42
2023/07/23 02:11:51;;;;;;;;;;;14.70;99.90;;;;;;4991416;28;19945;-42
2023/07/23 02:14:19;;;;;;;;;;;14.70;99.90;;;;;;4973732;28;19922;-42
2023/07/23 02:16:45;;;;;;;;;;;14.80;99.90;;;;;;4993573;28;19932;-43
2023/07/23 02:19:12;;;;;;;;;;;14.80;99.90;;;;;;4974406;28;19965;-43
2023/07/23 02:21:39;;;;;;;;;;;14.80;99.90;;;;;;4991987;28;20397;-43
2023/07/23 02:24:06;;;;;;;;;;;14.80;99.90;;;;;;4985189;28;20302;-43
2023/07/23 02:26:32;;;;;;;;;;;14.80;99.90;;;;;;4973242;28;19944;-43
2023/07/23 02:28:59;;;;;;;;;;;14.80;99.90;;;;;;4993091;28;20048;-43
2023/07/23 02:31:27;;;;;;;;;;;14.80;99.90;;;;;;4975996;28;19996;-42
2023/07/23 02:33:54;;;;;;;;;;;14.80;99.90;;;;;;4990098;28;19921;-42
2023/07/23 02:36:20;;;;;;;;;;;14.80;99.90;;;;;;4974020;28;19945;-43
2023/07/23 02:38:47;;;;;;;;;;;14.80;99.90;;;;;;4992092;28;19921;-43
2023/07/23 02:41:14;;;;;;;;;;;14.80;99.90;;;;;;4991697;28;19928;-43
2023/07/23 02:43:40;;;;;;;;;;;14.80;99.90;;;;;;4991429;28;20382;-43
2023/07/23 02:46:07;;;;;;;;;;;14.80;99.90;;;;;;4974053;28;19921;-43
2023/07/23 02:48:35;;;;;;;;;;;14.80;99.90;;;;;;4991085;28;19926;-43
2023/07/23 02:51:02;;;;;;;;;;;14.80;99.90;;;;;;4975904;28;20369;-42
2023/07/23 02:53:28;;;;;;;;;;;14.80;99.90;;;;;;4989620;28;20341;-44
2023/07/23 02:55:55;;;;;;;;;;;14.80;99.90;;;;;;4974054;28;19921;-42
2023/07/23 02:58:22;;;;;;;;;;;14.80;99.90;;;;;;4973794;28;19921;-43
2023/07/23 03:00:49;;;;;;;;;;;14.80;99.90;;;;;;4974286;28;19990;-43
2023/07/23 03:03:16;;;;;;;;;;;14.80;99.90;;;;;;4992104;28;19921;-43
2023/07/23 03:05:44;;;;;;;;;;;14.80;99.90;;;;;;4973845;28;20378;-43
2023/07/23 03:08:11;;;;;;;;;;;14.80;99.90;;;;;;4978962;28;19973;-42
2023/07/23 03:10:37;;;;;;;;;;;14.80;99.90;;;;;;4971320;28;20389;-43
2023/07/23 03:13:04;;;;;;;;;;;14.80;99.90;;;;;;4990535;28;19921;-43
2023/07/23 03:15:31;;;;;;;;;;;14.80;99.90;;;;;;4975371;28;19928;-43
2023/07/23 03:17:58;;;;;;;;;;;14.80;99.90;;;;;;4974549;28;19921;-43
2023/07/23 03:20:24;;;;;;;;;;;14.80;99.90;;;;;;4990859;28;19925;-42
2023/07/23 03:22:52;;;;;;;;;;;14.80;99.90;;;;;;4977111;28;20389;-44
2023/07/23 03:25:19;;;;;;;;;;;14.80;99.90;;;;;;4981822;28;19929;-43
2023/07/23 03:27:46;;;;;;;;;;;14.80;99.90;;;;;;4994621;28;20348;-44
2023/07/23 03:30:12;;;;;;;;;;;14.80;99.90;;;;;;4995039;28;19975;-43
2023/07/23 03:32:39;;;;;;;;;;;14.80;99.90;;;;;;4994348;28;20366;-44
2023/07/23 03:35:06;;;;;;;;;;;14.80;99.90;;;;;;4994086;28;19966;-44
2023/07/23 03:37:33;;;;;;;;;;;14.80;99.90;;;;;;4979033;28;19921;-44
2023/07/23 03:40:01;;;;;;;;;;;14.80;99.90;;;;;;4994238;28;20396;-44
2023/07/23 03:42:28;;;;;;;;;;;14.80;99.90;;;;;;4977094;28;20428;-43
2023/07/23 03:44:54;;;;;;;;;;;14.80;99.90;;;;;;4994789;28;19922;-43
2023/07/23 03:47:21;;;;;;;;;;;14.80;99.90;;;;;;4995189;28;19932;-42
2023/07/23 03:49:48;;;;;;;;;;;14.80;99.90;;;;;;4993965;28;19976;-43
2023/07/23 03:52:14;;;;;;;;;;;14.80;99.90;;;;;;4994124;28;19926;-42
2023/07/23 03:54:41;;;;;;;;;;;14.80;99.90;;;;;;4994118;28;20622;-43
2023/07/23 03:57:09;;;;;;;;;;;14.80;99.90;;;;;;4989564;28;19929;-43
2023/07/23 03:59:36;;;;;;;;;;;14.80;99.90;;;;;;4993225;28;19926;-44
2023/07/23 04:02:03;;;;;;;;;;;14.90;99.90;;;;;;4993988;28;19921;-43
2023/07/23 04:04:29;;;;;;;;;;;14.90;99.90;;;;;;4993832;28;19929;-44
2023/07/23 04:06:56;;;;;;;;;;;14.90;99.90;;;;;;4977134;28;19922;-44
2023/07/23 04:09:23;;;;;;;;;;;14.90;99.90;;;;;;4995631;28;20400;-43
2023/07/23 04:11:49;;;;;;;;;;;14.90;99.90;;;;;;4976640;28;19925;-43
2023/07/23 04:14:17;;;;;;;;;;;14.90;99.90;;;;;;4991056;28;20024;-42
2023/07/23 04:16:44;;;;;;;;;;;14.90;99.90;;;;;;4977194;28;20293;-43
2023/07/23 04:19:11;;;;;;;;;;;14.90;99.90;;;;;;4994163;28;19921;-43
2023/07/23 04:21:37;;;;;;;;;;;14.90;99.90;;;;;;4994485;28;19922;-43
2023/07/23 04:24:04;;;;;;;;;;;14.90;99.90;;;;;;4985608;28;20366;-43
2023/07/23 04:26:31;;;;;;;;;;;14.90;99.90;;;;;;4985117;28;19925;-43
2023/07/23 04:28:58;;;;;;;;;;;14.90;99.90;;;;;;4993748;28;20297;-43
2023/07/23 04:31:26;;;;;;;;;;;14.90;99.90;;;;;;4976545;28;20452;-42
2023/07/23 04:33:52;;;;;;;;;;;15.00;99.90;;;;;;4985326;28;19944;-43
2023/07/23 04:36:19;;;;;;;;;;;15.00;99.90;;;;;;4995260;28;19922;-43
2023/07/23 04:38:46;;;;;;;;;;;15.00;99.90;;;;;;4993759;28;19933;-44
2023/07/23 04:41:13;;;;;;;;;;;15.00;99.90;;;;;;4976070;28;19922;-43
2023/07/23 04:43:40;;;;;;;;;;;15.00;99.90;;;;;;4993926;28;19975;-42
2023/07/23 04:46:07;;;;;;;;;;;15.00;99.90;;;;;;4993147;28;19976;-43
2023/07/23 04:48:35;;;;;;;;;;;14.90;99.90;;;;;;4994912;28;20413;-43
2023/07/23 04:51:02;;;;;;;;;;;15.00;99.90;;;;;;4992483;28;20354;-43
2023/07/23 04:53:29;;;;;;;;;;;14.90;99.90;;;;;;4975799;28;19922;-43
2023/07/23 04:55:57;;;;;;;;;;;14.90;99.90;;;;;;4975274;28;19922;-43
2023/07/23 04:58:23;;;;;;;;;;;14.90;99.90;;;;;;4979848;28;20041;-42
2023/07/23 05:00:50;;;;;;;;;;;14.90;99.90;;;;;;4994802;28;19922;-42
2023/07/23 05:03:17;;;;;;;;;;;14.90;99.90;;;;;;4992970;28;19921;-42
2023/07/23 05:05:45;;;;;;;;;;;14.90;99.90;;;;;;4993140;28;19928;-42
2023/07/23 05:08:12;;;;;;;;;;;15.00;99.90;;;;;;4975120;28;19964;-42
2023/07/23 05:10:39;;;;;;;;;;;15.00;99.90;;;;;;4993067;28;19925;-43
2023/07/23 05:13:06;;;;;;;;;;;15.00;99.90;;;;;;4994625;28;19925;-42
2023/07/23 05:15:32;;;;;;;;;;;15.00;99.90;;;;;;4975152;28;19928;-42
2023/07/23 05:17:59;;;;;;;;;;;15.00;99.90;;;;;;4992714;28;19922;-43
2023/07/23 05:20:26;;;;;;;;;;;15.00;99.90;;;;;;4992593;28;19922;-42
2023/07/23 05:22:55;;;;;;;;;;;15.00;99.90;;;;;;4992132;28;19929;-42
2023/07/23 05:25:21;;;;;;;;;;;15.00;99.90;;;;;;4976760;28;19922;-43
2023/07/23 05:27:49;;;;;;;;;;;15.00;99.90;;;;;;4993598;28;19984;-44
2023/07/23 05:30:16;;;;;;;;;;;15.00;99.90;;;;;;4948061;28;19926;-43
2023/07/23 05:32:42;;;;;;;;;;;15.00;99.90;;;;;;4974285;28;20373;-43
2023/07/23 05:35:09;;;;;;;;;;;15.10;99.90;;;;;;4991531;28;19928;-43
2023/07/23 05:37:36;;;;;;;;;;;15.10;99.90;;;;;;4991614;28;19922;-44
2023/07/23 05:40:04;;;;;;;;;;;15.10;99.90;;;;;;4938436;29;20334;-43
2023/07/23 05:42:31;;;;;;;;;;;15.10;99.90;;;;;;4985216;28;19928;-43
2023/07/23 05:44:58;;;;;;;;;;;15.10;99.90;;;;;;4991035;28;19922;-43
2023/07/23 05:47:24;;;;;;;;;;;15.10;99.90;;;;;;4974824;28;20337;-43
2023/07/23 05:49:51;;;;;;;;;;;15.20;99.90;;;;;;4992122;28;19921;-43
2023/07/23 05:52:18;;;;;;;;;;;15.20;99.90;;;;;;4993772;28;19921;-44
2023/07/23 05:54:44;;;;;;;;;;;15.20;99.90;;;;;;4991451;28;19926;-44
2023/07/23 05:57:12;;;;;;;;;;;15.30;99.90;;;;;;4992505;28;19965;-43
2023/07/23 05:59:39;;;;;;;;;;;15.30;99.90;;;;;;4992410;28;19926;-43
2023/07/23 06:02:06;;;;;;;;;;;15.30;99.90;;;;;;4974782;28;19922;-43
2023/07/23 06:04:33;;;;;;;;;;;15.30;99.90;;;;;;4993806;28;20369;-44
2023/07/23 06:06:59;;;;;;;;;;;15.40;99.90;;;;;;4993345;28;19928;-43
2023/07/23 06:09:26;;;;;;;;;;;15.40;99.90;;;;;;4991995;28;20263;-48
2023/07/23 06:11:53;;;;;;;;;;;15.40;99.90;;;;;;4993727;28;19965;-44
2023/07/23 06:14:21;;;;;;;;;;;15.40;99.90;;;;;;4990870;28;19928;-46
2023/07/23 06:16:48;;;;;;;;;;;15.50;99.90;;;;;;4974647;28;19929;-43
2023/07/23 06:19:14;;;;;;;;;;;15.50;99.90;;;;;;4993812;28;19926;-44
2023/07/23 06:21:41;;;;;;;;;;;15.50;99.90;;;;;;4986880;28;19958;-43
2023/07/23 06:24:08;;;;;;;;;;;15.50;99.90;;;;;;4988673;28;19922;-42
2023/07/23 06:26:34;;;;;;;;;;;15.60;99.90;;;;;;4992786;28;19960;-43
2023/07/23 06:29:01;;;;;;;;;;;15.60;99.90;;;;;;4982024;28;19937;-43
2023/07/23 06:31:29;;;;;;;;;;;15.60;99.90;;;;;;4963491;28;20289;-42
2023/07/23 06:33:56;;;;;;;;;;;15.60;99.90;;;;;;4990828;28;19921;-43
2023/07/23 06:36:23;;;;;;;;;;;15.60;99.90;;;;;;4991019;28;19921;-44
2023/07/23 06:38:50;;;;;;;;;;;15.70;99.90;;;;;;4973513;28;19973;-43
2023/07/23 06:41:16;;;;;;;;;;;15.70;99.90;;;;;;4951089;28;20385;-43
2023/07/23 06:43:43;;;;;;;;;;;15.70;99.90;;;;;;4978153;28;19984;-42
2023/07/23 06:46:16;;;;;;;;;;;15.80;99.90;;;;;;4973581;28;19922;-45
2023/07/23 06:48:44;;;;;;;;;;;15.80;99.90;;;;;;4991823;28;19944;-44
2023/07/23 06:51:11;;;;;;;;;;;15.80;99.90;;;;;;4992702;28;19922;-43
2023/07/23 06:53:38;;;;;;;;;;;15.80;99.90;;;;;;4991946;28;19976;-42
2023/07/23 06:56:05;;;;;;;;;;;15.90;99.90;;;;;;4990688;28;19928;-42
2023/07/23 06:58:32;;;;;;;;;;;15.90;99.90;;;;;;4978010;28;19925;-42
2023/07/23 07:00:59;;;;;;;;;;;15.90;99.90;;;;;;4994966;28;19929;-41
2023/07/23 07:03:25;;;;;;;;;;;16.00;99.90;;;;;;4994513;28;19921;-41
2023/07/23 07:05:53;;;;;;;;;;;16.00;99.90;;;;;;4994497;28;19922;-43
2023/07/23 07:08:20;;;;;;;;;;;16.00;99.90;;;;;;4994444;28;19925;-45
2023/07/23 07:10:47;;;;;;;;;;;16.00;99.90;;;;;;4989156;28;19922;-42
2023/07/23 07:13:13;;;;;;;;;;;16.00;99.90;;;;;;4977567;28;19928;-41
2023/07/23 07:15:40;;;;;;;;;;;16.00;99.90;;;;;;4995185;28;19922;-42
2023/07/23 07:18:07;;;;;;;;;;;16.00;99.90;;;;;;4957774;29;19981;-41
2023/07/23 07:20:34;;;;;;;;;;;16.00;99.90;;;;;;4987636;28;19944;-43
2023/07/23 07:23:02;;;;;;;;;;;16.10;99.90;;;;;;4994618;28;19926;-42
2023/07/23 07:25:28;;;;;;;;;;;16.10;99.90;;;;;;4993807;28;20289;-41
2023/07/23 07:27:55;;;;;;;;;;;16.10;99.90;;;;;;4976583;28;20349;-42
2023/07/23 07:30:22;;;;;;;;;;;16.10;99.90;;;;;;4979637;28;19922;-42
2023/07/23 07:32:48;;;;;;;;;;;16.10;99.90;;;;;;4994506;28;19925;-42
2023/07/23 07:35:15;;;;;;;;;;;16.10;99.90;;;;;;4979065;28;20419;-42
2023/07/23 07:37:42;;;;;;;;;;;16.20;99.90;;;;;;4994869;28;20301;-42
2023/07/23 07:40:12;;;;;;;;;;;16.20;99.90;;;;;;4993446;28;19922;-41
2023/07/23 07:42:39;;;;;;;;;;;16.20;99.90;;;;;;4972310;28;19936;-42
2023/07/23 07:45:07;;;;;;;;;;;16.20;99.90;;;;;;4985336;28;19977;-40
2023/07/23 07:47:33;;;;;;;;;;;16.20;99.90;;;;;;4964933;28;19926;-41
2023/07/23 07:50:00;;;;;;;;;;;16.10;99.90;;;;;;4976371;28;19922;-41
2023/07/23 07:52:27;;;;;;;;;;;16.10;99.90;;;;;;4967654;28;19928;-41
2023/07/23 07:54:53;;;;;;;;;;;16.20;99.90;;;;;;4993846;28;19922;-41
2023/07/23 07:57:22;;;;;;;;;;;16.10;99.90;;;;;;4994648;28;20277;-42
2023/07/23 07:59:49;;;;;;;;;;;16.10;99.90;;;;;;4995920;28;19977;-41
2023/07/23 08:02:16;;;;;;;;;;;16.10;99.90;;;;;;4993700;28;19922;-42
2023/07/23 08:04:43;;;;;;;;;;;16.10;99.90;;;;;;4993872;28;19933;-42
2023/07/23 08:07:10;;;;;;;;;;;16.10;99.90;;;;;;4970992;28;19977;-42
2023/07/23 08:09:37;;;;;;;;;;;16.10;99.90;;;;;;4977344;28;20305;-42
2023/07/23 08:12:04;;;;;;;;;;;16.10;99.90;;;;;;4995896;28;19968;-41
2023/07/23 08:14:32;;;;;;;;;;;16.10;99.90;;;;;;4992714;28;19999;-42
2023/07/23 08:16:59;;;;;;;;;;;16.10;99.90;;;;;;4993433;28;19928;-42
2023/07/23 08:19:26;;;;;;;;;;;16.10;99.90;;;;;;4976743;28;19928;-41
2023/07/23 08:21:53;;;;;;;;;;;16.20;99.90;;;;;;4993456;28;19926;-42
2023/07/23 08:24:20;;;;;;;;;;;16.20;99.90;;;;;;4995751;28;19976;-42
2023/07/23 08:26:47;;;;;;;;;;;16.20;99.90;;;;;;4994182;28;19930;-43
2023/07/23 08:29:16;;;;;;;;;;;16.30;99.90;;;;;;4993954;28;19968;-42
2023/07/23 08:31:44;;;;;;;;;;;16.30;99.90;;;;;;4993243;28;20362;-42
2023/07/23 08:34:14;;;;;;;;;;;16.30;99.90;;;;;;4992639;28;20282;-43
2023/07/23 08:36:41;;;;;;;;;;;16.40;99.90;;;;;;4994917;28;20281;-43
2023/07/23 08:39:08;;;;;;;;;;;16.40;99.90;;;;;;4977784;28;19929;-42
2023/07/23 08:41:36;;;;;;;;;;;16.30;99.90;;;;;;4993294;28;19921;-42
2023/07/23 08:44:21;;;;;;;;;;;16.30;99.90;;;;;;4994767;28;19925;-42
2023/07/23 08:46:49;;;;;;;;;;;16.30;99.90;;;;;;4981798;28;19929;-43
2023/07/23 08:49:17;;;;;;;;;;;16.30;99.90;;;;;;4995090;28;19922;-42
2023/07/23 08:51:44;;;;;;;;;;;16.30;99.90;;;;;;4968127;28;20076;-42
2023/07/23 08:54:10;;;;;;;;;;;16.20;99.90;;;;;;4968194;28;20436;-43
2023/07/23 08:56:38;;;;;;;;;;;16.20;99.90;;;;;;4977509;28;19921;-43
2023/07/23 08:59:05;;;;;;;;;;;16.20;99.90;;;;;;4977783;28;19922;-42
2023/07/23 09:01:33;;;;;;;;;;;16.20;99.90;;;;;;4994490;28;19976;-42
2023/07/23 09:04:01;;;;;;;;;;;16.20;99.90;;;;;;4977846;28;19961;-41
2023/07/23 09:06:28;;;;;;;;;;;16.20;99.90;;;;;;4992772;28;19977;-42
2023/07/23 09:08:55;;;;;;;;;;;16.20;99.90;;;;;;4984223;28;19921;-42
2023/07/23 09:11:21;;;;;;;;;;;16.20;99.90;;;;;;4976563;28;20275;-41
2023/07/23 09:13:48;;;;;;;;;;;16.20;99.90;;;;;;4958259;28;19989;-42
2023/07/23 09:16:15;;;;;;;;;;;16.20;99.90;;;;;;4974804;28;19922;-42
2023/07/23 09:18:42;;;;;;;;;;;16.20;99.90;;;;;;4964250;28;19938;-43
2023/07/23 09:21:10;;;;;;;;;;;16.20;99.90;;;;;;4958701;28;19922;-42
2023/07/23 09:23:37;;;;;;;;;;;16.20;99.90;;;;;;4969609;28;19953;-41
2023/07/23 09:26:08;;;;;;;;;;;16.30;99.90;;;;;;4958031;28;19922;-42
2023/07/23 09:28:35;;;;;;;;;;;16.30;99.90;;;;;;4974999;28;19929;-42
2023/07/23 09:31:02;;;;;;;;;;;16.20;99.90;;;;;;4974518;28;19930;-42
2023/07/23 09:33:29;;;;;;;;;;;16.20;99.90;;;;;;4994355;28;19921;-43
2023/07/23 09:35:58;;;;;;;;;;;16.30;99.90;;;;;;4992358;28;20301;-43
2023/07/23 09:38:28;;;;;;;;;;;16.30;99.90;;;;;;4991348;28;19946;-42
2023/07/23 09:40:55;;;;;;;;;;;16.30;99.90;;;;;;4992896;28;20020;-42
2023/07/23 09:43:22;;;;;;;;;;;16.30;99.90;;;;;;4993847;28;20382;-43
2023/07/23 09:45:48;;;;;;;;;;;16.30;99.90;;;;;;4991857;28;19929;-42
2023/07/23 09:48:16;;;;;;;;;;;16.30;99.90;;;;;;4994154;28;19922;-42
2023/07/23 09:50:42;;;;;;;;;;;16.30;99.90;;;;;;4994065;28;19928;-43
2023/07/23 09:53:09;;;;;;;;;;;16.30;99.90;;;;;;4993786;28;19921;-43
2023/07/23 09:55:37;;;;;;;;;;;16.30;99.90;;;;;;4986336;28;20297;-42
2023/07/23 09:58:04;;;;;;;;;;;16.30;99.90;;;;;;4962876;28;20330;-42
2023/07/23 10:00:30;;;;;;;;;;;16.40;99.90;;;;;;4969155;28;20334;-43
2023/07/23 10:02:57;;;;;;;;;;;16.40;99.90;;;;;;4985016;28;19932;-42
2023/07/23 10:05:24;;;;;;;;;;;16.40;99.90;;;;;;4993814;28;19929;-43
2023/07/23 10:07:50;;;;;;;;;;;16.40;99.90;;;;;;4982702;28;20004;-41
2023/07/23 10:10:18;;;;;;;;;;;16.50;99.90;;;;;;4979661;28;19922;-42
2023/07/23 10:12:46;;;;;;;;;;;16.50;99.90;;;;;;4957119;28;19922;-42
2023/07/23 10:15:12;;;;;;;;;;;16.50;99.90;;;;;;4993668;28;19926;-42
2023/07/23 10:17:39;;;;;;;;;;;16.50;99.90;;;;;;4990363;28;19964;-42
2023/07/23 10:20:07;;;;;;;;;;;16.50;99.90;;;;;;4993435;28;19938;-42
2023/07/23 10:22:34;;;;;;;;;;;16.50;99.90;;;;;;4973441;28;19940;-43
2023/07/23 10:25:00;;;;;;;;;;;16.40;99.90;;;;;;4992054;28;20271;-42
2023/07/23 10:27:27;;;;;;;;;;;16.50;99.90;;;;;;4991300;28;19952;-42
2023/07/23 10:30:12;;;;;;;;;;;16.50;99.90;;;;;;4993529;28;19980;-42
2023/07/23 10:32:40;;;;;;;;;;;16.50;99.90;;;;;;4993393;28;19967;-42
2023/07/23 10:35:07;;;;;;;;;;;16.50;99.90;;;;;;4993110;28;20396;-42
2023/07/23 10:37:34;;;;;;;;;;;16.50;99.90;;;;;;4991309;28;20074;-43
2023/07/23 10:40:03;;;;;;;;;;;16.60;99.90;;;;;;4993667;28;19922;-42
2023/07/23 10:42:36;;;;;;;;;;;16.60;99.90;;;;;;4976108;28;19967;-42
2023/07/23 10:45:13;;;;;;;;;;;16.60;99.90;;;;;;4992446;28;19962;-43
2023/07/23 10:47:41;;;;;;;;;;;16.60;99.90;;;;;;4954471;29;19960;-42
2023/07/23 10:50:11;;;;;;;;;;;16.70;99.90;;;;;;4937198;29;20005;-43
2023/07/23 10:52:37;;;;;;;;;;;16.70;99.90;;;;;;4959791;28;19944;-42
2023/07/23 10:55:04;;;;;;;;;;;16.70;99.90;;;;;;4985631;28;19940;-42
2023/07/23 10:57:31;;;;;;;;;;;16.70;99.90;;;;;;4975600;28;20018;-42
2023/07/23 10:59:58;;;;;;;;;;;16.70;99.90;;;;;;4993297;28;19922;-43
2023/07/23 11:02:25;;;;;;;;;;;16.70;99.90;;;;;;4974735;28;19941;-41
2023/07/23 11:04:56;;;;;;;;;;;16.70;99.90;;;;;;4990491;28;19938;-41
2023/07/23 11:07:25;;;;;;;;;;;16.70;99.90;;;;;;4990600;28;19922;-41
2023/07/23 11:09:52;;;;;;;;;;;16.70;99.90;;;;;;4990569;28;19926;-43
2023/07/23 11:12:19;;;;;;;;;;;16.70;99.90;;;;;;4990914;28;19944;-42
2023/07/23 11:14:46;;;;;;;;;;;16.70;99.90;;;;;;4975890;28;19986;-42
2023/07/23 11:17:12;;;;;;;;;;;16.70;99.90;;;;;;4992722;28;19968;-41
2023/07/23 11:19:39;;;;;;;;;;;16.70;99.90;;;;;;4973625;28;20290;-41
2023/07/23 11:22:07;;;;;;;;;;;16.70;99.90;;;;;;4973085;28;20007;-41
2023/07/23 11:24:34;;;;;;;;;;;16.70;99.90;;;;;;4962605;28;19960;-41
2023/07/23 11:27:01;;;;;;;;;;;16.70;99.90;;;;;;4992804;28;20366;-41
2023/07/23 11:29:28;;;;;;;;;;;16.80;99.90;;;;;;4992957;28;20321;-41
2023/07/23 11:31:58;;;;;;;;;;;16.80;99.90;;;;;;4975892;28;19925;-42
2023/07/23 11:34:24;;;;;;;;;;;16.80;99.90;;;;;;4975782;28;19929;-42
2023/07/23 11:36:52;;;;;;;;;;;16.80;99.90;;;;;;4991401;28;19928;-41
2023/07/23 11:39:21;;;;;;;;;;;16.80;99.90;;;;;;4991478;28;20004;-42
2023/07/23 11:41:48;;;;;;;;;;;16.90;99.90;;;;;;4992984;28;19930;-41
2023/07/23 11:44:15;;;;;;;;;;;16.90;99.90;;;;;;4996164;28;20301;-43
2023/07/23 11:46:41;;;;;;;;;;;17.00;99.90;;;;;;4979006;28;19921;-41
2023/07/23 11:49:08;;;;;;;;;;;17.00;99.90;;;;;;4994109;28;19927;-42
2023/07/23 11:51:35;;;;;;;;;;;17.00;99.90;;;;;;4990139;28;19965;-42
2023/07/23 11:54:04;;;;;;;;;;;17.00;99.90;;;;;;4976688;28;19922;-42
2023/07/23 11:56:34;;;;;;;;;;;17.00;99.90;;;;;;4959677;28;19922;-42
2023/07/23 11:59:04;;;;;;;;;;;17.10;99.90;;;;;;4976699;28;19922;-41
2023/07/23 12:01:31;;;;;;;;;;;17.00;99.90;;;;;;4994630;28;20457;-42
2023/07/23 12:03:59;;;;;;;;;;;17.00;99.90;;;;;;4995673;28;20008;-41
2023/07/23 12:06:25;;;;;;;;;;;17.10;99.90;;;;;;4965255;28;19976;-42
2023/07/23 12:08:52;;;;;;;;;;;17.10;99.90;;;;;;4985429;28;19922;-42
2023/07/23 12:11:19;;;;;;;;;;;17.10;99.90;;;;;;4976372;28;19968;-42
2023/07/23 12:13:47;;;;;;;;;;;17.10;99.90;;;;;;4986492;28;19941;-42
2023/07/23 12:16:14;;;;;;;;;;;17.20;99.90;;;;;;4991393;28;20337;-42
2023/07/23 12:18:45;;;;;;;;;;;17.20;99.90;;;;;;4992003;28;20006;-42
2023/07/23 12:21:11;;;;;;;;;;;17.30;99.90;;;;;;4995519;28;19976;-41
2023/07/23 12:23:41;;;;;;;;;;;17.30;99.90;;;;;;4978570;28;20003;-42
2023/07/23 12:26:09;;;;;;;;;;;17.30;99.90;;;;;;4982034;28;20323;-42
2023/07/23 12:28:36;;;;;;;;;;;17.30;99.90;;;;;;4959188;28;19961;-42
2023/07/23 12:31:04;;;;;;;;;;;17.40;99.90;;;;;;4984592;28;19977;-42
2023/07/23 12:33:30;;;;;;;;;;;17.40;99.90;;;;;;4995336;28;20389;-43
2023/07/23 12:35:57;;;;;;;;;;;17.40;99.90;;;;;;4978080;28;20345;-41
2023/07/23 12:38:24;;;;;;;;;;;17.40;99.90;;;;;;4989714;28;20016;-42
2023/07/23 12:40:50;;;;;;;;;;;17.40;99.90;;;;;;4961688;28;19925;-43
2023/07/23 12:43:17;;;;;;;;;;;17.40;99.90;;;;;;4978090;28;19964;-42
2023/07/23 12:45:43;;;;;;;;;;;17.40;99.90;;;;;;4993767;28;19988;-42
2023/07/23 12:48:12;;;;;;;;;;;17.50;99.90;;;;;;4978118;28;19925;-42
2023/07/23 12:50:38;;;;;;;;;;;17.60;99.90;;;;;;4995093;28;20362;-42
2023/07/23 12:53:05;;;;;;;;;;;17.70;99.90;;;;;;4992250;28;19922;-43
2023/07/23 12:55:32;;;;;;;;;;;17.80;99.90;;;;;;4994746;28;19922;-41
2023/07/23 12:57:58;;;;;;;;;;;18.00;99.90;;;;;;4995452;28;20260;-42
2023/07/23 13:00:25;;;;;;;;;;;18.10;99.90;;;;;;4994087;28;20377;-42
2023/07/23 13:02:52;;;;;;;;;;;18.20;99.90;;;;;;4994793;28;20416;-42
2023/07/23 13:05:22;;;;;;;;;;;18.20;99.90;;;;;;4991915;28;19957;-42
2023/07/23 13:07:48;;;;;;;;;;;18.20;99.90;;;;;;4993729;28;19921;-42
2023/07/23 13:10:15;;;;;;;;;;;18.20;99.90;;;;;;4985161;28;20307;-42
2023/07/23 13:12:42;;;;;;;;;;;18.20;99.90;;;;;;4975332;28;19969;-43
2023/07/23 13:15:09;;;;;;;;;;;18.20;99.90;;;;;;4966334;28;19925;-42
2023/07/23 13:17:36;;;;;;;;;;;18.20;99.90;;;;;;4994506;28;19928;-42
2023/07/23 13:20:02;;;;;;;;;;;18.30;99.90;;;;;;4994338;28;19922;-42
2023/07/23 13:22:30;;;;;;;;;;;18.40;99.90;;;;;;4993220;28;20378;-42
2023/07/23 13:24:57;;;;;;;;;;;18.50;99.90;;;;;;4976441;28;19922;-42
2023/07/23 13:27:24;;;;;;;;;;;18.60;99.90;;;;;;4980783;28;19999;-41
2023/07/23 13:29:50;;;;;;;;;;;18.80;99.90;;;;;;4991758;28;19925;-42
2023/07/23 13:32:17;;;;;;;;;;;18.90;99.90;;;;;;4958673;28;19922;-42
2023/07/23 13:34:44;;;;;;;;;;;19.00;99.90;;;;;;4976771;28;19953;-42
2023/07/23 13:37:11;;;;;;;;;;;19.10;99.90;;;;;;4992007;28;20285;-43
2023/07/23 13:39:39;;;;;;;;;;;19.20;99.90;;;;;;4976873;28;20275;-43
2023/07/23 13:42:06;;;;;;;;;;;19.30;99.90;;;;;;4972336;28;19921;-42
2023/07/23 13:44:33;;;;;;;;;;;19.30;99.90;;;;;;4961595;28;20001;-42
2023/07/23 13:46:59;;;;;;;;;;;19.40;99.90;;;;;;4989918;28;19926;-42
2023/07/23 13:49:26;;;;;;;;;;;19.40;99.90;;;;;;4986512;28;19926;-42
2023/07/23 13:51:53;;;;;;;;;;;19.50;99.90;;;;;;4991853;28;19925;-42
2023/07/23 13:54:19;;;;;;;;;;;19.60;99.90;;;;;;4992860;28;19922;-43
2023/07/23 13:56:47;;;;;;;;;;;19.50;99.90;;;;;;4990948;28;19922;-43
2023/07/23 13:59:14;;;;;;;;;;;19.50;99.90;;;;;;4993740;28;19993;-42
2023/07/23 14:01:41;;;;;;;;;;;19.60;99.90;;;;;;4992830;28;19922;-45
2023/07/23 14:04:07;;;;;;;;;;;19.70;99.90;;;;;;4994192;28;20016;-42
2023/07/23 14:06:34;;;;;;;;;;;19.80;99.90;;;;;;4991893;28;19926;-42
2023/07/23 14:09:01;;;;;;;;;;;20.10;99.90;;;;;;4993534;28;19929;-43
2023/07/23 14:11:27;;;;;;;;;;;20.40;99.90;;;;;;4991900;28;19993;-43
2023/07/23 14:13:55;;;;;;;;;;;20.60;99.90;;;;;;4992229;28;19964;-43
2023/07/23 14:16:22;;;;;;;;;;;20.80;99.90;;;;;;4993500;28;19969;-43